sensor_id;sensor_type;location;lat;lon;timestamp;P1;durP1;ratioP1;P2;durP2;ratioP2
72895;SDS011;61036;53.224;6.554;2024-01-30T00:01:38;22.27;;;17.43;;
72895;SDS011;61036;53.224;6.554;2024-01-30T00:04:04;26.23;;;17.80;;
72895;SDS011;61036;53.224;6.554;2024-01-30T00:06:30;23.03;;;17.57;;
72895;SDS011;61036;53.224;6.554;2024-01-30T00:08:56;23.87;;;16.83;;
72895;SDS011;61036;53.224;6.554;2024-01-30T00:11:22;21.40;;;17.03;;
72895;SDS011;61036;53.224;6.554;2024-01-30T00:13:50;22.63;;;17.40;;
72895;SDS011;61036;53.224;6.554;2024-01-30T00:16:23;24.33;;;17.03;;
72895;SDS011;61036;53.224;6.554;2024-01-30T00:18:50;24.57;;;19.13;;
72895;SDS011;61036;53.224;6.554;2024-01-30T00:21:16;23.67;;;17.70;;
72895;SDS011;61036;53.224;6.554;2024-01-30T00:23:42;23.13;;;17.27;;
72895;SDS011;61036;53.224;6.554;2024-01-30T00:26:08;23.00;;;17.83;;
72895;SDS011;61036;53.224;6.554;2024-01-30T00:28:34;23.80;;;17.47;;
72895;SDS011;61036;53.224;6.554;2024-01-30T00:30:59;22.60;;;17.87;;
72895;SDS011;61036;53.224;6.554;2024-01-30T00:33:25;23.10;;;18.00;;
72895;SDS011;61036;53.224;6.554;2024-01-30T00:35:50;21.80;;;17.00;;
72895;SDS011;61036;53.224;6.554;2024-01-30T00:38:16;22.83;;;17.90;;
72895;SDS011;61036;53.224;6.554;2024-01-30T00:40:42;20.20;;;16.63;;
72895;SDS011;61036;53.224;6.554;2024-01-30T00:43:07;22.43;;;17.80;;
72895;SDS011;61036;53.224;6.554;2024-01-30T00:45:33;26.57;;;20.37;;
72895;SDS011;61036;53.224;6.554;2024-01-30T00:47:59;23.27;;;17.57;;
72895;SDS011;61036;53.224;6.554;2024-01-30T00:50:24;24.47;;;18.50;;
72895;SDS011;61036;53.224;6.554;2024-01-30T00:52:50;26.37;;;19.27;;
72895;SDS011;61036;53.224;6.554;2024-01-30T00:55:15;25.10;;;18.87;;
72895;SDS011;61036;53.224;6.554;2024-01-30T00:57:41;23.70;;;18.60;;
72895;SDS011;61036;53.224;6.554;2024-01-30T01:00:07;22.10;;;17.73;;
72895;SDS011;61036;53.224;6.554;2024-01-30T01:02:37;24.83;;;18.73;;
72895;SDS011;61036;53.224;6.554;2024-01-30T01:05:04;23.90;;;19.50;;
72895;SDS011;61036;53.224;6.554;2024-01-30T01:07:30;25.03;;;19.60;;
72895;SDS011;61036;53.224;6.554;2024-01-30T01:09:56;23.93;;;18.27;;
72895;SDS011;61036;53.224;6.554;2024-01-30T01:12:21;24.80;;;18.97;;
72895;SDS011;61036;53.224;6.554;2024-01-30T01:14:47;24.63;;;18.77;;
72895;SDS011;61036;53.224;6.554;2024-01-30T01:17:12;26.43;;;19.33;;
72895;SDS011;61036;53.224;6.554;2024-01-30T01:19:38;25.37;;;19.13;;
72895;SDS011;61036;53.224;6.554;2024-01-30T01:22:04;23.70;;;18.40;;
72895;SDS011;61036;53.224;6.554;2024-01-30T01:24:32;26.70;;;19.73;;
72895;SDS011;61036;53.224;6.554;2024-01-30T01:26:58;20.70;;;17.33;;
72895;SDS011;61036;53.224;6.554;2024-01-30T01:29:24;25.50;;;18.83;;
72895;SDS011;61036;53.224;6.554;2024-01-30T01:31:57;24.57;;;19.20;;
72895;SDS011;61036;53.224;6.554;2024-01-30T01:34:23;25.23;;;18.97;;
72895;SDS011;61036;53.224;6.554;2024-01-30T01:36:50;26.17;;;19.73;;
72895;SDS011;61036;53.224;6.554;2024-01-30T01:39:16;27.67;;;20.10;;
72895;SDS011;61036;53.224;6.554;2024-01-30T01:41:42;26.37;;;19.30;;
72895;SDS011;61036;53.224;6.554;2024-01-30T01:44:08;24.23;;;18.80;;
72895;SDS011;61036;53.224;6.554;2024-01-30T01:46:34;25.93;;;19.37;;
72895;SDS011;61036;53.224;6.554;2024-01-30T01:49:00;24.60;;;18.73;;
72895;SDS011;61036;53.224;6.554;2024-01-30T01:51:27;23.27;;;18.33;;
72895;SDS011;61036;53.224;6.554;2024-01-30T01:53:56;23.80;;;17.70;;
72895;SDS011;61036;53.224;6.554;2024-01-30T01:56:23;25.50;;;18.47;;
72895;SDS011;61036;53.224;6.554;2024-01-30T01:58:51;26.63;;;19.47;;
72895;SDS011;61036;53.224;6.554;2024-01-30T02:01:20;27.57;;;19.83;;
72895;SDS011;61036;53.224;6.554;2024-01-30T02:03:46;25.00;;;19.27;;
72895;SDS011;61036;53.224;6.554;2024-01-30T02:06:13;26.47;;;19.83;;
72895;SDS011;61036;53.224;6.554;2024-01-30T02:08:40;22.10;;;18.37;;
72895;SDS011;61036;53.224;6.554;2024-01-30T02:11:05;27.70;;;18.93;;
72895;SDS011;61036;53.224;6.554;2024-01-30T02:13:31;27.20;;;19.83;;
72895;SDS011;61036;53.224;6.554;2024-01-30T02:15:56;23.30;;;18.40;;
72895;SDS011;61036;53.224;6.554;2024-01-30T02:18:22;24.53;;;18.60;;
72895;SDS011;61036;53.224;6.554;2024-01-30T02:20:47;22.97;;;18.00;;
72895;SDS011;61036;53.224;6.554;2024-01-30T02:23:15;25.80;;;19.23;;
72895;SDS011;61036;53.224;6.554;2024-01-30T02:25:42;24.00;;;19.40;;
72895;SDS011;61036;53.224;6.554;2024-01-30T02:28:11;25.50;;;20.30;;
72895;SDS011;61036;53.224;6.554;2024-01-30T02:30:37;22.53;;;18.33;;
72895;SDS011;61036;53.224;6.554;2024-01-30T02:33:12;25.37;;;19.63;;
72895;SDS011;61036;53.224;6.554;2024-01-30T02:35:38;24.77;;;19.37;;
72895;SDS011;61036;53.224;6.554;2024-01-30T02:38:04;24.80;;;19.13;;
72895;SDS011;61036;53.224;6.554;2024-01-30T02:40:30;23.27;;;17.80;;
72895;SDS011;61036;53.224;6.554;2024-01-30T02:42:58;28.20;;;19.50;;
72895;SDS011;61036;53.224;6.554;2024-01-30T02:45:24;22.57;;;17.77;;
72895;SDS011;61036;53.224;6.554;2024-01-30T02:47:50;23.67;;;17.80;;
72895;SDS011;61036;53.224;6.554;2024-01-30T02:50:16;22.77;;;18.40;;
72895;SDS011;61036;53.224;6.554;2024-01-30T02:52:42;25.70;;;18.67;;
72895;SDS011;61036;53.224;6.554;2024-01-30T02:55:11;25.33;;;19.63;;
72895;SDS011;61036;53.224;6.554;2024-01-30T02:57:37;23.23;;;18.77;;
72895;SDS011;61036;53.224;6.554;2024-01-30T03:00:03;25.93;;;18.53;;
72895;SDS011;61036;53.224;6.554;2024-01-30T03:02:31;23.63;;;17.70;;
72895;SDS011;61036;53.224;6.554;2024-01-30T03:04:57;25.50;;;19.10;;
72895;SDS011;61036;53.224;6.554;2024-01-30T03:07:22;27.20;;;18.87;;
72895;SDS011;61036;53.224;6.554;2024-01-30T03:09:48;25.43;;;18.63;;
72895;SDS011;61036;53.224;6.554;2024-01-30T03:12:13;23.07;;;17.63;;
72895;SDS011;61036;53.224;6.554;2024-01-30T03:14:39;22.20;;;17.63;;
72895;SDS011;61036;53.224;6.554;2024-01-30T03:17:04;23.00;;;17.37;;
72895;SDS011;61036;53.224;6.554;2024-01-30T03:19:30;22.80;;;16.63;;
72895;SDS011;61036;53.224;6.554;2024-01-30T03:21:55;22.60;;;17.93;;
72895;SDS011;61036;53.224;6.554;2024-01-30T03:24:21;22.77;;;16.57;;
72895;SDS011;61036;53.224;6.554;2024-01-30T03:26:47;26.40;;;17.63;;
72895;SDS011;61036;53.224;6.554;2024-01-30T03:29:13;24.80;;;19.10;;
72895;SDS011;61036;53.224;6.554;2024-01-30T03:31:38;24.80;;;17.13;;
72895;SDS011;61036;53.224;6.554;2024-01-30T03:34:04;24.07;;;17.93;;
72895;SDS011;61036;53.224;6.554;2024-01-30T03:36:30;21.40;;;17.00;;
72895;SDS011;61036;53.224;6.554;2024-01-30T03:38:58;20.87;;;16.10;;
72895;SDS011;61036;53.224;6.554;2024-01-30T03:41:23;20.63;;;16.27;;
72895;SDS011;61036;53.224;6.554;2024-01-30T03:43:49;24.27;;;17.23;;
72895;SDS011;61036;53.224;6.554;2024-01-30T03:46:15;23.03;;;16.43;;
72895;SDS011;61036;53.224;6.554;2024-01-30T03:48:40;22.60;;;17.33;;
72895;SDS011;61036;53.224;6.554;2024-01-30T03:51:06;22.37;;;16.77;;
72895;SDS011;61036;53.224;6.554;2024-01-30T03:53:31;24.40;;;17.93;;
72895;SDS011;61036;53.224;6.554;2024-01-30T03:55:57;21.57;;;16.77;;
72895;SDS011;61036;53.224;6.554;2024-01-30T03:58:22;20.37;;;16.37;;
72895;SDS011;61036;53.224;6.554;2024-01-30T04:00:48;23.93;;;16.87;;
72895;SDS011;61036;53.224;6.554;2024-01-30T04:03:16;21.83;;;16.37;;
72895;SDS011;61036;53.224;6.554;2024-01-30T04:05:42;21.23;;;16.90;;
72895;SDS011;61036;53.224;6.554;2024-01-30T04:08:08;22.63;;;16.53;;
72895;SDS011;61036;53.224;6.554;2024-01-30T04:10:33;21.53;;;15.50;;
72895;SDS011;61036;53.224;6.554;2024-01-30T04:12:59;19.63;;;16.27;;
72895;SDS011;61036;53.224;6.554;2024-01-30T04:15:25;21.43;;;16.03;;
72895;SDS011;61036;53.224;6.554;2024-01-30T04:17:51;20.10;;;16.07;;
72895;SDS011;61036;53.224;6.554;2024-01-30T04:20:16;21.77;;;15.80;;
72895;SDS011;61036;53.224;6.554;2024-01-30T04:22:43;19.20;;;15.73;;
72895;SDS011;61036;53.224;6.554;2024-01-30T04:25:12;20.30;;;16.20;;
72895;SDS011;61036;53.224;6.554;2024-01-30T04:27:38;19.37;;;15.13;;
72895;SDS011;61036;53.224;6.554;2024-01-30T04:30:03;20.73;;;15.07;;
72895;SDS011;61036;53.224;6.554;2024-01-30T04:32:29;20.17;;;15.03;;
72895;SDS011;61036;53.224;6.554;2024-01-30T04:34:55;19.90;;;15.23;;
72895;SDS011;61036;53.224;6.554;2024-01-30T04:37:20;21.43;;;15.47;;
72895;SDS011;61036;53.224;6.554;2024-01-30T04:39:46;22.60;;;15.73;;
72895;SDS011;61036;53.224;6.554;2024-01-30T04:42:11;19.63;;;14.97;;
72895;SDS011;61036;53.224;6.554;2024-01-30T04:44:37;23.80;;;15.73;;
72895;SDS011;61036;53.224;6.554;2024-01-30T04:47:02;20.20;;;15.17;;
72895;SDS011;61036;53.224;6.554;2024-01-30T04:49:28;18.43;;;14.60;;
72895;SDS011;61036;53.224;6.554;2024-01-30T04:51:54;19.07;;;14.60;;
72895;SDS011;61036;53.224;6.554;2024-01-30T04:54:20;19.60;;;14.50;;
72895;SDS011;61036;53.224;6.554;2024-01-30T04:56:45;18.70;;;13.80;;
72895;SDS011;61036;53.224;6.554;2024-01-30T04:59:11;20.67;;;15.80;;
72895;SDS011;61036;53.224;6.554;2024-01-30T05:01:37;20.63;;;14.80;;
72895;SDS011;61036;53.224;6.554;2024-01-30T05:04:02;19.93;;;14.47;;
72895;SDS011;61036;53.224;6.554;2024-01-30T05:06:28;19.40;;;14.73;;
72895;SDS011;61036;53.224;6.554;2024-01-30T05:08:55;19.80;;;14.70;;
72895;SDS011;61036;53.224;6.554;2024-01-30T05:11:20;20.17;;;14.40;;
72895;SDS011;61036;53.224;6.554;2024-01-30T05:13:46;19.57;;;14.27;;
72895;SDS011;61036;53.224;6.554;2024-01-30T05:16:11;18.00;;;13.77;;
72895;SDS011;61036;53.224;6.554;2024-01-30T05:18:37;18.60;;;13.80;;
72895;SDS011;61036;53.224;6.554;2024-01-30T05:21:02;18.07;;;13.23;;
72895;SDS011;61036;53.224;6.554;2024-01-30T05:23:28;18.73;;;13.93;;
72895;SDS011;61036;53.224;6.554;2024-01-30T05:25:54;17.70;;;13.57;;
72895;SDS011;61036;53.224;6.554;2024-01-30T05:28:19;18.00;;;14.03;;
72895;SDS011;61036;53.224;6.554;2024-01-30T05:30:45;18.10;;;13.70;;
72895;SDS011;61036;53.224;6.554;2024-01-30T05:33:10;18.13;;;13.77;;
72895;SDS011;61036;53.224;6.554;2024-01-30T05:35:37;19.53;;;13.60;;
72895;SDS011;61036;53.224;6.554;2024-01-30T05:38:03;18.57;;;13.53;;
72895;SDS011;61036;53.224;6.554;2024-01-30T05:40:29;17.20;;;13.00;;
72895;SDS011;61036;53.224;6.554;2024-01-30T05:42:55;18.63;;;13.13;;
72895;SDS011;61036;53.224;6.554;2024-01-30T05:45:21;18.40;;;13.80;;
72895;SDS011;61036;53.224;6.554;2024-01-30T05:47:48;18.73;;;14.03;;
72895;SDS011;61036;53.224;6.554;2024-01-30T05:50:14;18.27;;;14.07;;
72895;SDS011;61036;53.224;6.554;2024-01-30T05:52:40;20.47;;;13.83;;
72895;SDS011;61036;53.224;6.554;2024-01-30T05:55:05;17.60;;;12.80;;
72895;SDS011;61036;53.224;6.554;2024-01-30T05:57:31;19.43;;;13.93;;
72895;SDS011;61036;53.224;6.554;2024-01-30T05:59:57;17.83;;;13.67;;
72895;SDS011;61036;53.224;6.554;2024-01-30T06:02:22;19.90;;;14.70;;
72895;SDS011;61036;53.224;6.554;2024-01-30T06:04:48;17.30;;;14.17;;
72895;SDS011;61036;53.224;6.554;2024-01-30T06:07:13;19.97;;;14.73;;
72895;SDS011;61036;53.224;6.554;2024-01-30T06:09:39;17.97;;;14.03;;
72895;SDS011;61036;53.224;6.554;2024-01-30T06:12:05;20.83;;;14.80;;
72895;SDS011;61036;53.224;6.554;2024-01-30T06:14:31;19.07;;;13.70;;
72895;SDS011;61036;53.224;6.554;2024-01-30T06:16:57;20.47;;;14.23;;
72895;SDS011;61036;53.224;6.554;2024-01-30T06:19:23;24.83;;;14.77;;
72895;SDS011;61036;53.224;6.554;2024-01-30T06:21:49;19.07;;;14.13;;
72895;SDS011;61036;53.224;6.554;2024-01-30T06:24:14;19.47;;;14.37;;
72895;SDS011;61036;53.224;6.554;2024-01-30T06:26:40;18.87;;;14.30;;
72895;SDS011;61036;53.224;6.554;2024-01-30T06:29:06;19.40;;;14.47;;
72895;SDS011;61036;53.224;6.554;2024-01-30T06:31:32;17.93;;;14.83;;
72895;SDS011;61036;53.224;6.554;2024-01-30T06:33:58;19.20;;;14.07;;
72895;SDS011;61036;53.224;6.554;2024-01-30T06:36:24;17.40;;;13.57;;
72895;SDS011;61036;53.224;6.554;2024-01-30T06:38:49;17.83;;;13.40;;
72895;SDS011;61036;53.224;6.554;2024-01-30T06:41:15;20.67;;;14.07;;
72895;SDS011;61036;53.224;6.554;2024-01-30T06:43:40;17.27;;;13.07;;
72895;SDS011;61036;53.224;6.554;2024-01-30T06:46:06;18.77;;;13.90;;
72895;SDS011;61036;53.224;6.554;2024-01-30T06:48:32;17.47;;;13.20;;
72895;SDS011;61036;53.224;6.554;2024-01-30T06:50:57;18.50;;;13.80;;
72895;SDS011;61036;53.224;6.554;2024-01-30T06:53:23;17.33;;;13.30;;
72895;SDS011;61036;53.224;6.554;2024-01-30T06:55:51;19.93;;;14.00;;
72895;SDS011;61036;53.224;6.554;2024-01-30T06:58:17;19.70;;;14.27;;
72895;SDS011;61036;53.224;6.554;2024-01-30T07:00:42;19.10;;;12.67;;
72895;SDS011;61036;53.224;6.554;2024-01-30T07:03:08;17.70;;;14.43;;
72895;SDS011;61036;53.224;6.554;2024-01-30T07:05:34;18.53;;;13.80;;
72895;SDS011;61036;53.224;6.554;2024-01-30T07:07:59;21.20;;;14.00;;
72895;SDS011;61036;53.224;6.554;2024-01-30T07:10:25;17.83;;;12.90;;
72895;SDS011;61036;53.224;6.554;2024-01-30T07:12:51;17.43;;;13.47;;
72895;SDS011;61036;53.224;6.554;2024-01-30T07:15:16;19.07;;;13.83;;
72895;SDS011;61036;53.224;6.554;2024-01-30T07:17:44;17.27;;;13.53;;
72895;SDS011;61036;53.224;6.554;2024-01-30T07:20:11;17.93;;;12.70;;
72895;SDS011;61036;53.224;6.554;2024-01-30T07:22:36;20.40;;;14.57;;
72895;SDS011;61036;53.224;6.554;2024-01-30T07:25:02;20.83;;;13.30;;
72895;SDS011;61036;53.224;6.554;2024-01-30T07:27:28;16.73;;;13.40;;
72895;SDS011;61036;53.224;6.554;2024-01-30T07:29:54;16.37;;;13.23;;
72895;SDS011;61036;53.224;6.554;2024-01-30T07:32:20;19.17;;;13.00;;
72895;SDS011;61036;53.224;6.554;2024-01-30T07:34:45;17.53;;;13.60;;
72895;SDS011;61036;53.224;6.554;2024-01-30T07:37:11;19.70;;;14.67;;
72895;SDS011;61036;53.224;6.554;2024-01-30T07:39:40;16.67;;;12.63;;
72895;SDS011;61036;53.224;6.554;2024-01-30T07:42:06;19.10;;;14.30;;
72895;SDS011;61036;53.224;6.554;2024-01-30T07:44:32;18.40;;;13.20;;
72895;SDS011;61036;53.224;6.554;2024-01-30T07:46:57;20.83;;;13.90;;
72895;SDS011;61036;53.224;6.554;2024-01-30T07:49:23;18.10;;;14.47;;
72895;SDS011;61036;53.224;6.554;2024-01-30T07:51:48;16.20;;;12.10;;
72895;SDS011;61036;53.224;6.554;2024-01-30T07:54:14;25.20;;;18.17;;
72895;SDS011;61036;53.224;6.554;2024-01-30T07:56:40;18.63;;;13.37;;
72895;SDS011;61036;53.224;6.554;2024-01-30T07:59:12;15.10;;;12.40;;
72895;SDS011;61036;53.224;6.554;2024-01-30T08:01:40;19.47;;;13.53;;
72895;SDS011;61036;53.224;6.554;2024-01-30T08:04:06;17.97;;;13.63;;
72895;SDS011;61036;53.224;6.554;2024-01-30T08:06:31;18.93;;;14.30;;
72895;SDS011;61036;53.224;6.554;2024-01-30T08:08:58;18.80;;;13.90;;
72895;SDS011;61036;53.224;6.554;2024-01-30T08:11:24;19.13;;;14.63;;
72895;SDS011;61036;53.224;6.554;2024-01-30T08:13:54;22.40;;;16.23;;
72895;SDS011;61036;53.224;6.554;2024-01-30T08:16:20;17.53;;;13.93;;
72895;SDS011;61036;53.224;6.554;2024-01-30T08:18:46;17.90;;;13.47;;
72895;SDS011;61036;53.224;6.554;2024-01-30T08:21:11;17.47;;;12.97;;
72895;SDS011;61036;53.224;6.554;2024-01-30T08:23:40;20.80;;;13.37;;
72895;SDS011;61036;53.224;6.554;2024-01-30T08:26:06;19.03;;;14.33;;
72895;SDS011;61036;53.224;6.554;2024-01-30T08:28:32;17.37;;;12.97;;
72895;SDS011;61036;53.224;6.554;2024-01-30T08:30:57;22.03;;;14.00;;
72895;SDS011;61036;53.224;6.554;2024-01-30T08:33:23;19.73;;;13.10;;
72895;SDS011;61036;53.224;6.554;2024-01-30T08:35:48;17.20;;;12.73;;
72895;SDS011;61036;53.224;6.554;2024-01-30T08:38:14;17.97;;;13.13;;
72895;SDS011;61036;53.224;6.554;2024-01-30T08:40:39;15.97;;;12.23;;
72895;SDS011;61036;53.224;6.554;2024-01-30T08:43:05;29.43;;;16.40;;
72895;SDS011;61036;53.224;6.554;2024-01-30T08:45:31;19.03;;;12.63;;
72895;SDS011;61036;53.224;6.554;2024-01-30T08:47:56;16.10;;;11.97;;
72895;SDS011;61036;53.224;6.554;2024-01-30T08:50:22;18.23;;;12.50;;
72895;SDS011;61036;53.224;6.554;2024-01-30T08:52:47;16.43;;;12.90;;
72895;SDS011;61036;53.224;6.554;2024-01-30T08:55:13;17.53;;;13.13;;
72895;SDS011;61036;53.224;6.554;2024-01-30T08:57:39;17.37;;;11.83;;
72895;SDS011;61036;53.224;6.554;2024-01-30T09:00:05;17.67;;;11.67;;
72895;SDS011;61036;53.224;6.554;2024-01-30T09:02:34;19.27;;;13.37;;
72895;SDS011;61036;53.224;6.554;2024-01-30T09:05:00;18.97;;;11.83;;
72895;SDS011;61036;53.224;6.554;2024-01-30T09:07:26;16.20;;;12.33;;
72895;SDS011;61036;53.224;6.554;2024-01-30T09:09:51;15.27;;;11.47;;
72895;SDS011;61036;53.224;6.554;2024-01-30T09:12:17;15.77;;;12.27;;
72895;SDS011;61036;53.224;6.554;2024-01-30T09:14:43;14.90;;;11.73;;
72895;SDS011;61036;53.224;6.554;2024-01-30T09:17:08;19.13;;;12.00;;
72895;SDS011;61036;53.224;6.554;2024-01-30T09:19:34;14.87;;;11.17;;
72895;SDS011;61036;53.224;6.554;2024-01-30T09:22:00;17.40;;;12.40;;
72895;SDS011;61036;53.224;6.554;2024-01-30T09:24:26;17.93;;;12.43;;
72895;SDS011;61036;53.224;6.554;2024-01-30T09:26:52;17.93;;;12.47;;
72895;SDS011;61036;53.224;6.554;2024-01-30T09:29:18;19.37;;;12.17;;
72895;SDS011;61036;53.224;6.554;2024-01-30T09:31:44;15.63;;;11.27;;
72895;SDS011;61036;53.224;6.554;2024-01-30T09:34:10;16.53;;;11.83;;
72895;SDS011;61036;53.224;6.554;2024-01-30T09:36:36;20.57;;;12.20;;
72895;SDS011;61036;53.224;6.554;2024-01-30T09:39:02;18.83;;;12.27;;
72895;SDS011;61036;53.224;6.554;2024-01-30T09:41:29;16.33;;;12.03;;
72895;SDS011;61036;53.224;6.554;2024-01-30T09:43:57;18.23;;;11.90;;
72895;SDS011;61036;53.224;6.554;2024-01-30T09:46:23;15.30;;;10.47;;
72895;SDS011;61036;53.224;6.554;2024-01-30T09:48:55;19.00;;;11.87;;
72895;SDS011;61036;53.224;6.554;2024-01-30T09:51:22;15.80;;;11.60;;
72895;SDS011;61036;53.224;6.554;2024-01-30T09:53:49;21.60;;;12.17;;
72895;SDS011;61036;53.224;6.554;2024-01-30T09:56:15;17.40;;;11.57;;
72895;SDS011;61036;53.224;6.554;2024-01-30T09:58:41;17.37;;;11.40;;
72895;SDS011;61036;53.224;6.554;2024-01-30T10:01:07;17.20;;;11.67;;
72895;SDS011;61036;53.224;6.554;2024-01-30T10:03:33;15.87;;;10.67;;
72895;SDS011;61036;53.224;6.554;2024-01-30T10:05:59;15.70;;;10.73;;
72895;SDS011;61036;53.224;6.554;2024-01-30T10:08:26;16.10;;;10.47;;
72895;SDS011;61036;53.224;6.554;2024-01-30T10:10:52;15.77;;;10.73;;
72895;SDS011;61036;53.224;6.554;2024-01-30T10:13:18;17.80;;;11.80;;
72895;SDS011;61036;53.224;6.554;2024-01-30T10:15:44;17.50;;;11.73;;
72895;SDS011;61036;53.224;6.554;2024-01-30T10:18:10;15.70;;;11.63;;
72895;SDS011;61036;53.224;6.554;2024-01-30T10:20:36;15.43;;;10.97;;
72895;SDS011;61036;53.224;6.554;2024-01-30T10:23:02;18.23;;;11.63;;
72895;SDS011;61036;53.224;6.554;2024-01-30T10:25:28;18.37;;;12.13;;
72895;SDS011;61036;53.224;6.554;2024-01-30T10:27:56;16.63;;;10.90;;
72895;SDS011;61036;53.224;6.554;2024-01-30T10:30:23;19.10;;;11.03;;
72895;SDS011;61036;53.224;6.554;2024-01-30T10:32:49;18.70;;;12.47;;
72895;SDS011;61036;53.224;6.554;2024-01-30T10:35:16;18.57;;;12.03;;
72895;SDS011;61036;53.224;6.554;2024-01-30T10:37:48;17.30;;;11.30;;
72895;SDS011;61036;53.224;6.554;2024-01-30T10:40:14;19.53;;;11.60;;
72895;SDS011;61036;53.224;6.554;2024-01-30T10:42:44;20.43;;;12.03;;
72895;SDS011;61036;53.224;6.554;2024-01-30T10:45:11;17.47;;;11.60;;
72895;SDS011;61036;53.224;6.554;2024-01-30T10:47:48;18.43;;;11.90;;
72895;SDS011;61036;53.224;6.554;2024-01-30T10:50:15;17.47;;;11.80;;
72895;SDS011;61036;53.224;6.554;2024-01-30T10:52:41;39.10;;;25.93;;
72895;SDS011;61036;53.224;6.554;2024-01-30T10:55:07;19.77;;;12.93;;
72895;SDS011;61036;53.224;6.554;2024-01-30T10:57:36;21.50;;;11.90;;
72895;SDS011;61036;53.224;6.554;2024-01-30T11:00:05;15.77;;;11.67;;
72895;SDS011;61036;53.224;6.554;2024-01-30T11:02:39;19.20;;;12.17;;
72895;SDS011;61036;53.224;6.554;2024-01-30T11:05:07;17.13;;;12.03;;
72895;SDS011;61036;53.224;6.554;2024-01-30T11:07:33;21.37;;;12.87;;
72895;SDS011;61036;53.224;6.554;2024-01-30T11:12:32;21.67;;;12.13;;
72895;SDS011;61036;53.224;6.554;2024-01-30T11:15:08;17.27;;;11.37;;
72895;SDS011;61036;53.224;6.554;2024-01-30T11:17:42;19.87;;;12.00;;
72895;SDS011;61036;53.224;6.554;2024-01-30T11:20:11;19.23;;;11.47;;
72895;SDS011;61036;53.224;6.554;2024-01-30T11:22:40;14.67;;;10.67;;
72895;SDS011;61036;53.224;6.554;2024-01-30T11:25:16;15.50;;;9.67;;
72895;SDS011;61036;53.224;6.554;2024-01-30T11:27:44;17.83;;;10.20;;
72895;SDS011;61036;53.224;6.554;2024-01-30T11:30:11;17.77;;;9.60;;
72895;SDS011;61036;53.224;6.554;2024-01-30T11:35:31;15.63;;;7.97;;
72895;SDS011;61036;53.224;6.554;2024-01-30T11:37:58;16.67;;;7.77;;
72895;SDS011;61036;53.224;6.554;2024-01-30T11:40:28;16.97;;;7.37;;
72895;SDS011;61036;53.224;6.554;2024-01-30T11:42:58;14.00;;;7.60;;
72895;SDS011;61036;53.224;6.554;2024-01-30T11:45:24;13.67;;;6.73;;
72895;SDS011;61036;53.224;6.554;2024-01-30T11:47:50;12.27;;;6.27;;
72895;SDS011;61036;53.224;6.554;2024-01-30T11:50:16;12.80;;;6.37;;
72895;SDS011;61036;53.224;6.554;2024-01-30T11:52:41;15.53;;;6.00;;
72895;SDS011;61036;53.224;6.554;2024-01-30T11:55:08;10.67;;;5.27;;
72895;SDS011;61036;53.224;6.554;2024-01-30T11:57:35;11.73;;;5.07;;
72895;SDS011;61036;53.224;6.554;2024-01-30T12:00:05;11.63;;;5.47;;
72895;SDS011;61036;53.224;6.554;2024-01-30T12:02:41;11.57;;;5.13;;
72895;SDS011;61036;53.224;6.554;2024-01-30T12:05:07;9.23;;;4.23;;
72895;SDS011;61036;53.224;6.554;2024-01-30T12:07:34;12.70;;;4.57;;
72895;SDS011;61036;53.224;6.554;2024-01-30T12:10:00;14.13;;;4.07;;
72895;SDS011;61036;53.224;6.554;2024-01-30T12:12:27;8.53;;;4.03;;
72895;SDS011;61036;53.224;6.554;2024-01-30T12:14:53;7.47;;;3.80;;
72895;SDS011;61036;53.224;6.554;2024-01-30T12:17:30;5.47;;;3.03;;
72895;SDS011;61036;53.224;6.554;2024-01-30T12:20:03;6.57;;;2.13;;
72895;SDS011;61036;53.224;6.554;2024-01-30T12:22:36;5.23;;;1.77;;
72895;SDS011;61036;53.224;6.554;2024-01-30T12:25:08;4.17;;;1.70;;
72895;SDS011;61036;53.224;6.554;2024-01-30T12:27:35;6.40;;;1.80;;
72895;SDS011;61036;53.224;6.554;2024-01-30T12:30:05;3.80;;;1.40;;
72895;SDS011;61036;53.224;6.554;2024-01-30T12:32:38;2.97;;;1.10;;
72895;SDS011;61036;53.224;6.554;2024-01-30T12:35:12;2.93;;;1.20;;
72895;SDS011;61036;53.224;6.554;2024-01-30T12:37:38;4.67;;;1.20;;
72895;SDS011;61036;53.224;6.554;2024-01-30T12:40:04;4.60;;;1.30;;
72895;SDS011;61036;53.224;6.554;2024-01-30T12:42:34;278.53;;;97.80;;
72895;SDS011;61036;53.224;6.554;2024-01-30T12:45:04;288.77;;;104.57;;
72895;SDS011;61036;53.224;6.554;2024-01-30T12:47:30;275.00;;;96.25;;
72895;SDS011;61036;53.224;6.554;2024-01-30T12:49:57;3.07;;;1.17;;
72895;SDS011;61036;53.224;6.554;2024-01-30T12:52:23;4.90;;;1.33;;
72895;SDS011;61036;53.224;6.554;2024-01-30T12:54:49;3.53;;;1.10;;
72895;SDS011;61036;53.224;6.554;2024-01-30T12:57:15;5.60;;;1.33;;
72895;SDS011;61036;53.224;6.554;2024-01-30T12:59:42;8.43;;;3.97;;
72895;SDS011;61036;53.224;6.554;2024-01-30T13:02:08;3.03;;;1.10;;
72895;SDS011;61036;53.224;6.554;2024-01-30T13:04:34;4.40;;;1.33;;
72895;SDS011;61036;53.224;6.554;2024-01-30T13:07:00;3.00;;;1.10;;
72895;SDS011;61036;53.224;6.554;2024-01-30T13:09:26;6.10;;;1.30;;
72895;SDS011;61036;53.224;6.554;2024-01-30T13:11:52;5.23;;;1.47;;
72895;SDS011;61036;53.224;6.554;2024-01-30T13:14:18;5.23;;;1.30;;
72895;SDS011;61036;53.224;6.554;2024-01-30T13:16:44;3.07;;;1.10;;
72895;SDS011;61036;53.224;6.554;2024-01-30T13:19:09;4.43;;;1.20;;
72895;SDS011;61036;53.224;6.554;2024-01-30T13:21:36;3.90;;;1.40;;
72895;SDS011;61036;53.224;6.554;2024-01-30T13:24:01;3.53;;;1.20;;
72895;SDS011;61036;53.224;6.554;2024-01-30T13:26:27;3.90;;;1.20;;
72895;SDS011;61036;53.224;6.554;2024-01-30T13:28:53;4.97;;;1.63;;
72895;SDS011;61036;53.224;6.554;2024-01-30T13:31:18;4.67;;;1.30;;
72895;SDS011;61036;53.224;6.554;2024-01-30T13:33:44;3.70;;;1.37;;
72895;SDS011;61036;53.224;6.554;2024-01-30T13:36:10;3.27;;;1.27;;
72895;SDS011;61036;53.224;6.554;2024-01-30T13:38:37;3.87;;;1.30;;
72895;SDS011;61036;53.224;6.554;2024-01-30T13:41:04;4.37;;;1.53;;
72895;SDS011;61036;53.224;6.554;2024-01-30T13:43:30;7.03;;;1.53;;
72895;SDS011;61036;53.224;6.554;2024-01-30T13:45:55;5.53;;;1.43;;
72895;SDS011;61036;53.224;6.554;2024-01-30T13:48:21;5.00;;;1.30;;
72895;SDS011;61036;53.224;6.554;2024-01-30T13:50:47;5.70;;;1.47;;
72895;SDS011;61036;53.224;6.554;2024-01-30T13:53:13;7.43;;;1.50;;
72895;SDS011;61036;53.224;6.554;2024-01-30T13:55:39;4.23;;;1.67;;
72895;SDS011;61036;53.224;6.554;2024-01-30T13:58:05;2.67;;;1.17;;
72895;SDS011;61036;53.224;6.554;2024-01-30T14:00:31;4.90;;;1.50;;
72895;SDS011;61036;53.224;6.554;2024-01-30T14:02:57;3.83;;;1.23;;
72895;SDS011;61036;53.224;6.554;2024-01-30T14:05:24;3.97;;;1.30;;
72895;SDS011;61036;53.224;6.554;2024-01-30T14:07:50;6.03;;;1.53;;
72895;SDS011;61036;53.224;6.554;2024-01-30T14:10:17;4.10;;;1.33;;
72895;SDS011;61036;53.224;6.554;2024-01-30T14:12:43;5.13;;;1.40;;
72895;SDS011;61036;53.224;6.554;2024-01-30T14:15:13;4.67;;;1.40;;
72895;SDS011;61036;53.224;6.554;2024-01-30T14:17:46;2.33;;;1.10;;
72895;SDS011;61036;53.224;6.554;2024-01-30T14:20:14;2.33;;;1.00;;
72895;SDS011;61036;53.224;6.554;2024-01-30T14:22:39;3.50;;;1.33;;
72895;SDS011;61036;53.224;6.554;2024-01-30T14:25:05;3.40;;;1.50;;
72895;SDS011;61036;53.224;6.554;2024-01-30T14:27:31;7.40;;;1.30;;